LICA

Lamezia Terme Airport

Lamezia Terme, Italy
TAF LICA 252300Z 2600/2624 VRB04KT CAVOK BECMG 2608/2610 26010KT BECMG 2618/2620 VRB04KT
Issued Valid From Valid To
Apr-25 @ 23:00 UTC
(5 hours ago)
Apr-26 @ 00:00 UTC
(4 hours ago)
Apr-27 @ 00:00 UTC
(in 20 hours)
Apr-26 @ 00:00 to Apr-26 @ 08:00
TAF LICA 252300Z 2600/2624 VRB04KT CAVOK
Wind Visibility Clouds Conditions
Variable at 4 knots 10,000+ meters
  • No significant clouds
Becoming Apr-26 @ 08:00 to Apr-26 @ 18:00
BECMG 2608/2610 26010KT
Wind Visibility Clouds Conditions
260° at 10 knots 10,000+ meters
  • No significant clouds
Becoming Apr-26 @ 18:00 to Apr-27 @ 00:00
BECMG 2618/2620 VRB04KT
Wind Visibility Clouds Conditions
Variable at 4 knots 10,000+ meters
  • No significant clouds
TAF LICA 252300Z 2600/2624 VRB04KT CAVOK BECMG 2608/2610 26010KT BECMG 2618/2620 VRB04KT
Issued Apr-25 @ 23:00 UTC
(5 hours ago)
Valid From Apr-26 @ 00:00 UTC
(4 hours ago)
Valid To Apr-27 @ 00:00 UTC
(in 20 hours)
Apr-26 @ 00:00 - Apr-26 @ 08:00
Wind Visibility
Variable at 4 knots 10,000+ meters
Clouds
  • No significant clouds
Conditions
Becoming Apr-26 @ 08:00 - Apr-26 @ 18:00
Wind Visibility
260° at 10 knots 10,000+ meters
Clouds
  • No significant clouds
Conditions
Becoming Apr-26 @ 18:00 - Apr-27 @ 00:00
Wind Visibility
Variable at 4 knots 10,000+ meters
Clouds
  • No significant clouds
Conditions